createdAt,value
2022-08-30T00:01:06.625Z,4.55
2022-08-30T00:06:03.510Z,9.27
2022-08-30T00:11:00.242Z,6.03
2022-08-30T00:15:57.201Z,4.35
2022-08-30T00:20:54.081Z,7.43
2022-08-30T00:25:52.850Z,4.68
2022-08-30T00:30:50.392Z,5.95
2022-08-30T00:35:46.684Z,4.20
2022-08-30T00:40:44.192Z,3.40
2022-08-30T00:45:40.853Z,4.53
2022-08-30T00:50:46.329Z,3.33
2022-08-30T00:55:44.350Z,4.00
2022-08-30T01:00:40.874Z,4.32
2022-08-30T01:05:38.557Z,4.35
2022-08-30T01:10:36.496Z,3.80
2022-08-30T01:15:33.183Z,4.68
2022-08-30T01:20:39.536Z,4.07
2022-08-30T01:25:36.925Z,4.88
2022-08-30T01:30:33.760Z,3.55
2022-08-30T01:35:34.719Z,4.68
2022-08-30T01:40:31.080Z,4.32
2022-08-30T01:45:27.348Z,7.97
2022-08-30T01:50:23.644Z,5.93
2022-08-30T01:55:19.904Z,3.55
2022-08-30T02:00:17.379Z,4.40
2022-08-30T02:05:13.713Z,5.43
2022-08-30T02:10:10.192Z,4.38
2022-08-30T02:15:06.885Z,4.65
2022-08-30T02:20:03.570Z,3.88
2022-08-30T02:25:00.871Z,3.50
2022-08-30T02:29:57.146Z,3.88
2022-08-30T02:34:54.719Z,4.22
2022-08-30T02:39:50.960Z,4.15
2022-08-30T02:44:47.216Z,6.13
2022-08-30T02:49:43.455Z,3.47
2022-08-30T02:54:39.792Z,4.65
2022-08-30T02:59:41.563Z,4.10
2022-08-30T03:04:39.151Z,4.27
2022-08-30T03:09:35.810Z,3.50
2022-08-30T03:14:32.098Z,4.20
2022-08-30T03:19:28.461Z,4.22
2022-08-30T03:24:24.911Z,4.68
2022-08-30T03:29:21.442Z,4.95
2022-08-30T03:34:20.424Z,6.13
2022-08-30T03:39:16.941Z,3.40
2022-08-30T03:44:13.314Z,6.50
2022-08-30T03:49:09.600Z,4.72
2022-08-30T03:54:05.956Z,3.60
2022-08-30T03:59:02.474Z,4.00
2022-08-30T04:03:58.774Z,3.55
2022-08-30T04:08:55.178Z,5.88
2022-08-30T04:13:51.865Z,3.70
2022-08-30T04:18:48.264Z,4.28
2022-08-30T04:23:44.887Z,31.60
2022-08-30T04:28:41.376Z,135.38
2022-08-30T04:33:37.839Z,135.70
2022-08-30T04:38:35.519Z,113.30
2022-08-30T04:43:31.800Z,82.80
2022-08-30T04:48:28.153Z,69.20
2022-08-30T04:53:24.429Z,53.30
2022-08-30T04:58:20.973Z,96.10
2022-08-30T05:03:17.982Z,38.63
2022-08-30T05:08:15.829Z,58.33
2022-08-30T05:13:12.747Z,64.30
2022-08-30T05:18:13.368Z,63.30
2022-08-30T05:23:10.615Z,64.15
2022-08-30T05:28:06.909Z,71.22
2022-08-30T05:33:03.271Z,65.88
2022-08-30T05:37:59.631Z,72.45
2022-08-30T05:42:55.902Z,66.85
2022-08-30T05:47:52.192Z,67.47
2022-08-30T05:52:48.467Z,65.22
2022-08-30T05:57:44.758Z,59.80
2022-08-30T06:02:41.818Z,63.70
2022-08-30T06:07:38.145Z,63.38
2022-08-30T06:12:34.394Z,60.20
2022-08-30T06:17:30.623Z,60.45
2022-08-30T06:22:26.956Z,63.20
2022-08-30T06:27:23.211Z,58.83
2022-08-30T06:32:19.528Z,47.15
2022-08-30T06:37:29.385Z,45.72
2022-08-30T06:42:31.864Z,16.40
2022-08-30T06:47:28.661Z,20.00
2022-08-30T06:52:25.112Z,18.73
2022-08-30T06:57:21.881Z,19.08
2022-08-30T07:02:18.194Z,17.65
2022-08-30T07:07:14.869Z,17.23
2022-08-30T07:12:11.794Z,16.10
2022-08-30T07:17:31.267Z,16.88
2022-08-30T07:22:32.160Z,18.73
2022-08-30T07:27:28.402Z,18.88
2022-08-30T07:32:25.584Z,18.50
2022-08-30T07:37:21.864Z,18.55
2022-08-30T07:42:18.179Z,18.23
2022-08-30T07:47:14.459Z,18.35
2022-08-30T07:52:10.850Z,35.72
2022-08-30T07:57:07.082Z,40.22
2022-08-30T08:02:03.741Z,35.22
2022-08-30T08:07:00.372Z,26.98
2022-08-30T08:11:56.650Z,25.08
2022-08-30T08:16:53.075Z,25.50
2022-08-30T08:21:59.342Z,22.95
2022-08-30T08:27:05.788Z,25.17
2022-08-30T08:32:02.162Z,20.77
2022-08-30T08:36:58.776Z,22.73
2022-08-30T08:42:13.203Z,20.83
2022-08-30T08:47:32.472Z,17.27
2022-08-30T08:52:49.130Z,16.70
2022-08-30T08:57:45.391Z,18.08
2022-08-30T09:02:43.299Z,17.05
2022-08-30T09:07:45.208Z,17.05
2022-08-30T09:12:41.484Z,17.13
2022-08-30T09:17:49.859Z,17.15
2022-08-30T09:22:46.697Z,16.10
2022-08-30T09:27:44.715Z,15.27
2022-08-30T09:32:42.582Z,14.93
2022-08-30T09:37:40.975Z,14.13
2022-08-30T09:42:39.010Z,14.13
2022-08-30T09:47:35.331Z,13.70
2022-08-30T09:52:31.560Z,13.07
2022-08-30T09:57:40.106Z,12.82
2022-08-30T10:02:42.255Z,12.52
2022-08-30T10:07:58.883Z,12.10
2022-08-30T10:13:30.538Z,11.77
2022-08-30T10:18:32.824Z,11.65
2022-08-30T10:23:31.440Z,10.98
2022-08-30T10:28:36.621Z,10.27
2022-08-30T10:33:35.817Z,9.85
2022-08-30T10:38:36.832Z,9.57
2022-08-30T10:43:41.274Z,10.02
2022-08-30T10:48:40.323Z,9.90
2022-08-30T10:53:45.474Z,10.70
2022-08-30T10:58:42.483Z,9.53
2022-08-30T11:03:49.671Z,9.63
2022-08-30T11:08:45.883Z,9.73
2022-08-30T11:13:43.204Z,10.30
2022-08-30T11:18:51.155Z,10.68
2022-08-30T11:24:00.862Z,11.50
2022-08-30T11:28:57.105Z,10.95
2022-08-30T11:33:55.440Z,10.85
2022-08-30T11:38:51.662Z,10.98
2022-08-30T11:43:49.207Z,10.18
2022-08-30T11:48:54.201Z,11.43
2022-08-30T11:53:58.193Z,11.15
2022-08-30T11:58:54.775Z,10.65
2022-08-30T12:04:09.803Z,10.70
2022-08-30T12:09:33.004Z,11.02
2022-08-30T12:14:40.959Z,10.52
2022-08-30T12:19:37.956Z,11.00
2022-08-30T12:24:40.883Z,10.80
2022-08-30T12:29:37.107Z,10.40
2022-08-30T12:34:51.982Z,9.98
2022-08-30T12:39:59.382Z,9.43
2022-08-30T12:44:58.590Z,10.60
2022-08-30T12:49:55.425Z,10.93
2022-08-30T12:54:53.471Z,10.27
2022-08-30T12:59:56.692Z,10.32
2022-08-30T13:04:56.625Z,10.65
2022-08-30T13:10:00.730Z,9.85
2022-08-30T13:15:16.517Z,10.35
2022-08-30T13:20:12.740Z,9.88
2022-08-30T13:25:12.448Z,10.00
2022-08-30T13:30:13.578Z,10.10
2022-08-30T13:35:11.329Z,9.35
2022-08-30T13:40:09.291Z,20.92
2022-08-30T13:45:40.983Z,10.65
2022-08-30T13:50:22.191Z,10.18
2022-08-30T13:55:18.710Z,9.70
2022-08-30T14:00:18.830Z,9.38
2022-08-30T14:05:37.739Z,9.27
2022-08-30T14:10:32.622Z,9.70
2022-08-30T14:15:29.046Z,9.32
2022-08-30T14:20:25.336Z,9.80
2022-08-30T14:25:23.375Z,9.70
2022-08-30T14:30:21.230Z,9.40
2022-08-30T14:35:19.223Z,10.05
2022-08-30T14:40:16.877Z,9.70
2022-08-30T14:45:13.210Z,9.75
2022-08-30T14:50:09.610Z,9.80
2022-08-30T14:55:08.797Z,9.00
2022-08-30T15:00:06.204Z,21.83
2022-08-30T15:05:02.735Z,9.43
2022-08-30T15:09:59.080Z,9.48
2022-08-30T15:14:55.824Z,8.80
2022-08-30T15:19:52.370Z,8.95
2022-08-30T15:24:48.882Z,8.73
2022-08-30T15:29:47.142Z,9.73
2022-08-30T15:34:43.472Z,9.82
2022-08-30T15:39:44.463Z,8.70
2022-08-30T15:44:40.729Z,9.40
2022-08-30T15:49:36.963Z,9.30
2022-08-30T15:54:33.348Z,9.02
2022-08-30T15:59:30.817Z,8.48
2022-08-30T16:04:27.124Z,8.50
2022-08-30T16:09:23.546Z,8.70
2022-08-30T16:14:19.768Z,7.75
2022-08-30T16:19:16.283Z,8.80
2022-08-30T16:24:14.047Z,7.95
2022-08-30T16:29:12.284Z,8.30
2022-08-30T16:34:08.674Z,8.18
2022-08-30T16:39:08.200Z,7.40
2022-08-30T16:44:06.038Z,7.07
2022-08-30T16:49:03.174Z,7.78
2022-08-30T16:54:00.658Z,7.47
2022-08-30T16:59:02.044Z,7.80
2022-08-30T17:03:59.432Z,8.10
2022-08-30T17:08:56.940Z,7.75
2022-08-30T17:13:53.852Z,7.38
2022-08-30T17:18:51.569Z,7.60
2022-08-30T17:23:54.451Z,7.28
2022-08-30T17:28:57.679Z,7.38
2022-08-30T17:33:59.146Z,7.78
2022-08-30T17:38:57.366Z,7.75
2022-08-30T17:43:53.723Z,7.20
2022-08-30T17:48:57.568Z,7.60
2022-08-30T17:53:58.456Z,7.38
2022-08-30T17:58:54.840Z,7.95
2022-08-30T18:03:57.126Z,6.70
2022-08-30T18:08:58.711Z,7.03
2022-08-30T18:13:54.987Z,7.00
2022-08-30T18:18:55.628Z,8.05
2022-08-30T18:23:53.686Z,7.57
2022-08-30T18:28:50.102Z,8.80
2022-08-30T18:33:46.631Z,7.40
2022-08-30T18:38:44.484Z,8.02
2022-08-30T18:43:41.335Z,7.47
2022-08-30T18:48:40.043Z,7.55
2022-08-30T18:53:36.418Z,7.60
2022-08-30T18:58:32.739Z,7.50
2022-08-30T19:03:33.091Z,7.35
2022-08-30T19:08:30.169Z,7.43
2022-08-30T19:13:27.231Z,6.97
2022-08-30T19:18:23.499Z,7.40
2022-08-30T19:23:23.316Z,7.55
2022-08-30T19:28:20.366Z,7.32
2022-08-30T19:33:17.264Z,6.90
2022-08-30T19:38:13.908Z,7.68
2022-08-30T19:43:12.387Z,6.80
2022-08-30T19:48:11.009Z,6.85
2022-08-30T19:53:08.949Z,6.50
2022-08-30T19:58:06.822Z,6.95
2022-08-30T20:03:04.773Z,7.10
2022-08-30T20:08:01.176Z,7.80
2022-08-30T20:12:57.483Z,7.22
2022-08-30T20:18:05.384Z,6.45
2022-08-30T20:23:02.832Z,6.50
2022-08-30T20:28:01.214Z,6.50
2022-08-30T20:32:57.691Z,6.40
2022-08-30T20:37:53.935Z,6.72
2022-08-30T20:42:51.781Z,6.97
2022-08-30T20:47:48.827Z,6.70
2022-08-30T20:52:45.431Z,6.70
2022-08-30T20:57:41.658Z,7.28
2022-08-30T21:02:46.429Z,6.53
2022-08-30T21:07:44.163Z,7.40
2022-08-30T21:12:40.438Z,7.13
2022-08-30T21:17:36.722Z,6.88
2022-08-30T21:22:38.235Z,7.53
2022-08-30T21:27:34.656Z,7.55
2022-08-30T21:32:31.001Z,7.15
2022-08-30T21:37:27.254Z,8.02
2022-08-30T21:42:23.588Z,7.43
2022-08-30T21:47:23.261Z,7.00
2022-08-30T21:52:20.303Z,7.47
2022-08-30T21:57:16.957Z,7.53
2022-08-30T22:02:13.225Z,7.45
2022-08-30T22:07:09.842Z,6.97
2022-08-30T22:12:06.832Z,7.43
2022-08-30T22:17:04.766Z,7.63
2022-08-30T22:22:01.724Z,8.27
2022-08-30T22:26:59.041Z,7.57
2022-08-30T22:31:55.394Z,7.88
2022-08-30T22:36:54.043Z,7.57
2022-08-30T22:41:50.349Z,7.85
2022-08-30T22:46:47.016Z,7.95
2022-08-30T22:51:43.885Z,9.00
2022-08-30T22:56:40.225Z,9.52
2022-08-30T23:01:38.561Z,9.30
2022-08-30T23:06:34.917Z,9.25
2022-08-30T23:11:33.193Z,9.20
2022-08-30T23:16:29.897Z,10.90
2022-08-30T23:21:27.797Z,10.02
2022-08-30T23:26:42.756Z,9.80
2022-08-30T23:31:57.779Z,10.25
2022-08-30T23:37:13.051Z,8.77
2022-08-30T23:42:27.834Z,9.45
2022-08-30T23:47:43.063Z,9.23
2022-08-30T23:52:58.078Z,9.68
2022-08-30T23:58:13.175Z,11.43
